Time;durP1;ratioP1;P1;durP2;ratioP2;P2;SDS_P1;SDS_P2;PMS_P1;PMS_P2;Temp;Humidity;BMP_temperature;BMP_pressure;BME280_temperature;BME280_humidity;BME280_pressure;Samples;Min_cycle;Max_cycle;Signal;HPM_P1;HPM_P2
2023/12/03 00:00:53;;;;;;;16.10;11.60;;;;;;;-3.38;50.85;100599.75;10512863;28;20683;-41
2023/12/03 00:05:55;;;;;;;20.30;11.20;;;;;;;-3.89;51.46;100659.63;10518804;28;20244;-40
2023/12/03 00:10:57;;;;;;;16.33;12.60;;;;;;;-2.44;50.89;100231.56;10522610;28;20231;-41
2023/12/03 00:15:59;;;;;;;16.10;11.17;;;;;;;-3.02;50.90;100436.50;10517539;28;20308;-41
2023/12/03 00:21:00;;;;;;;17.97;12.17;;;;;;;-2.32;49.68;100319.97;10523658;28;20759;-40
2023/12/03 00:26:02;;;;;;;15.33;11.83;;;;;;;-2.81;49.35;100520.97;10509382;28;20594;-39
2023/12/03 00:31:04;;;;;;;16.67;11.50;;;;;;;-1.93;49.46;100325.63;10522091;28;20238;-41
2023/12/03 00:36:06;;;;;;;14.97;12.50;;;;;;;-1.83;48.29;100391.53;10521414;28;20891;-41
2023/12/03 00:41:08;;;;;;;15.77;12.13;;;;;;;-1.52;48.55;100327.56;10525823;28;20238;-40
2023/12/03 00:46:10;;;;;;;14.53;11.77;;;;;;;-1.02;47.05;100341.19;10530115;28;20276;-41
2023/12/03 00:51:12;;;;;;;17.50;13.07;;;;;;;-2.51;49.64;100529.88;10527328;28;20775;-37
2023/12/03 00:56:14;;;;;;;17.57;13.20;;;;;;;-2.02;49.11;100458.16;10522860;28;20289;-37
2023/12/03 01:01:19;;;;;;;15.03;11.63;;;;;;;-2.11;48.48;100514.59;10504745;28;20494;-39
2023/12/03 01:06:20;;;;;;;18.50;12.83;;;;;;;-2.30;49.69;100477.22;10526700;28;20226;-38
2023/12/03 01:11:22;;;;;;;18.53;13.33;;;;;;;-1.25;47.79;100330.28;10525685;28;20227;-42
2023/12/03 01:16:51;;;;;;;18.93;13.77;;;;;;;-1.68;48.53;100416.88;10516309;28;20742;-39
2023/12/03 01:21:53;;;;;;;19.57;13.47;;;;;;;-2.39;49.04;100586.03;10525621;28;20223;-38
2023/12/03 01:26:55;;;;;;;18.30;13.50;;;;;;;-2.41;49.30;100545.09;10521830;28;20752;-39
2023/12/03 01:31:57;;;;;;;20.37;13.87;;;;;;;-1.67;48.87;100318.81;10512378;28;20312;-40
2023/12/03 01:36:59;;;;;;;18.93;13.80;;;;;;;-1.06;47.98;100237.22;10524933;28;20342;-41
2023/12/03 01:42:01;;;;;;;18.67;13.53;;;;;;;-1.53;47.90;100367.91;10522841;28;20797;-39
2023/12/03 01:47:04;;;;;;;19.40;13.60;;;;;;;-1.53;47.91;100399.41;10525783;28;20266;-38
2023/12/03 01:52:06;;;;;;;20.47;13.50;;;;;;;-2.97;49.62;100637.00;10523172;28;20685;-35
2023/12/03 01:57:08;;;;;;;21.60;15.33;;;;;;;-2.26;48.04;100548.69;10523679;28;20281;-37
2023/12/03 02:02:10;;;;;;;19.90;14.17;;;;;;;-2.59;49.03;100541.66;10513931;28;20318;-37
2023/12/03 02:07:12;;;;;;;22.03;15.00;;;;;;;-1.68;47.79;100366.16;10520550;28;20230;-42
2023/12/03 02:12:14;;;;;;;20.23;14.67;;;;;;;-2.23;49.18;100438.38;10519312;28;20218;-41
2023/12/03 02:17:16;;;;;;;19.80;14.27;;;;;;;-1.99;48.90;100420.41;10526151;28;20262;-38
2023/12/03 02:22:18;;;;;;;21.63;15.53;;;;;;;-1.83;48.14;100418.63;10525396;28;20241;-42
2023/12/03 02:27:19;;;;;;;22.63;15.07;;;;;;;-1.72;48.07;100417.97;10519171;28;20239;-40
2023/12/03 02:32:21;;;;;;;20.37;14.47;;;;;;;-0.93;46.83;100305.59;10523339;28;20309;-37
2023/12/03 02:37:23;;;;;;;20.97;13.50;;;;;;;-1.84;47.45;100534.16;10506718;28;20234;-39
2023/12/03 02:42:25;;;;;;;21.47;14.40;;;;;;;-1.71;47.48;100473.97;10524002;28;20300;-38
2023/12/03 02:47:26;;;;;;;20.00;14.80;;;;;;;-2.00;47.51;100560.34;10523218;28;20746;-37
2023/12/03 02:52:28;;;;;;;21.20;15.20;;;;;;;-1.54;47.17;100479.06;10523044;28;20239;-41
2023/12/03 02:57:30;;;;;;;22.27;15.07;;;;;;;-1.92;47.63;100540.66;10520730;28;20258;-37
2023/12/03 03:02:32;;;;;;;19.17;14.47;;;;;;;-1.83;47.76;100528.81;10520905;28;20231;-37
2023/12/03 03:07:34;;;;;;;22.67;15.47;;;;;;;-2.34;47.73;100667.91;10510696;28;20739;-38
2023/12/03 03:12:35;;;;;;;19.80;13.73;;;;;;;-2.15;47.35;100638.97;10514071;28;20245;-37
2023/12/03 03:17:37;;;;;;;17.87;13.33;;;;;;;-2.14;47.46;100610.94;10508557;28;20237;-36
2023/12/03 03:22:39;;;;;;;18.47;13.70;;;;;;;-2.05;47.80;100558.00;10503342;28;20280;-40
2023/12/03 03:27:41;;;;;;;16.57;12.37;;;;;;;-1.75;46.63;100588.72;10499784;28;20247;-42
2023/12/03 03:32:42;;;;;;;19.23;13.50;;;;;;;-2.68;49.06;100647.81;10498967;28;20215;-42
2023/12/03 03:37:44;;;;;;;18.40;13.13;;;;;;;-2.82;48.79;100637.19;10491470;28;20318;-36
2023/12/03 03:42:46;;;;;;;19.03;13.47;;;;;;;-2.84;49.11;100649.50;10501143;28;20238;-39
2023/12/03 03:47:48;;;;;;;17.63;12.97;;;;;;;-2.91;49.06;100630.63;10511431;28;20345;-36
2023/12/03 03:52:49;;;;;;;20.17;13.77;;;;;;;-3.09;49.41;100680.31;10502601;28;20237;-36
2023/12/03 03:57:51;;;;;;;19.03;14.27;;;;;;;-3.01;48.65;100681.75;10519630;28;20236;-39
2023/12/03 04:02:53;;;;;;;20.43;12.83;;;;;;;-2.76;48.70;100624.63;10511908;28;20238;-40
2023/12/03 04:07:55;;;;;;;19.43;14.17;;;;;;;-2.77;48.83;100617.69;10515569;28;20766;-37
2023/12/03 04:12:56;;;;;;;20.43;14.40;;;;;;;-2.64;48.56;100602.19;10524202;28;20235;-38
2023/12/03 04:17:58;;;;;;;19.07;13.27;;;;;;;-2.61;48.78;100593.31;10516422;28;20247;-40
2023/12/03 04:23:01;;;;;;;19.03;14.13;;;;;;;-2.80;49.59;100589.00;10511885;28;20319;-38
2023/12/03 04:28:03;;;;;;;19.40;12.67;;;;;;;-3.96;51.22;100747.97;10519982;28;20241;-37
2023/12/03 04:33:05;;;;;;;19.83;14.10;;;;;;;-3.83;51.00;100686.38;10507313;28;20226;-37
2023/12/03 04:38:06;;;;;;;17.03;13.33;;;;;;;-3.91;50.69;100737.31;10495373;28;20237;-41
2023/12/03 04:43:08;;;;;;;17.33;13.00;;;;;;;-3.55;49.69;100754.91;10521752;28;20659;-35
2023/12/03 04:48:10;;;;;;;19.67;13.43;;;;;;;-3.23;50.42;100597.22;10526757;28;20320;-38
2023/12/03 04:53:11;;;;;;;21.53;13.47;;;;;;;-4.15;51.47;100785.34;10519133;28;20738;-39
2023/12/03 04:58:13;;;;;;;19.73;12.80;;;;;;;-3.70;51.58;100599.50;10507042;28;20645;-38
2023/12/03 05:03:15;;;;;;;20.00;13.90;;;;;;;-4.27;51.46;100766.75;10521879;28;20257;-39
2023/12/03 05:08:17;;;;;;;16.40;12.37;;;;;;;-3.44;51.30;100533.66;10507553;28;20731;-34
2023/12/03 05:13:19;;;;;;;16.43;13.13;;;;;;;-3.37;51.07;100507.19;10511050;28;20261;-37
2023/12/03 05:18:21;;;;;;;20.00;13.47;;;;;;;-3.15;50.46;100478.16;10518988;28;20229;-35
2023/12/03 05:23:24;;;;;;;19.23;13.53;;;;;;;-4.39;51.80;100781.19;10492014;28;20735;-39
2023/12/03 05:28:25;;;;;;;17.00;12.40;;;;;;;-4.35;51.45;100801.91;10495382;28;20351;-39
2023/12/03 05:33:27;;;;;;;16.47;12.17;;;;;;;-3.12;50.14;100517.28;10513323;28;20261;-40
2023/12/03 05:38:29;;;;;;;15.87;10.87;;;;;;;-4.10;51.74;100640.53;10502114;28;20237;-36
2023/12/03 05:43:31;;;;;;;15.67;11.77;;;;;;;-3.66;50.93;100585.34;10521789;28;20241;-40
2023/12/03 05:48:33;;;;;;;16.73;12.13;;;;;;;-4.16;50.93;100725.31;10517254;28;20802;-39
2023/12/03 05:53:35;;;;;;;16.57;12.60;;;;;;;-3.31;50.27;100543.53;10514881;28;20736;-41
2023/12/03 05:58:37;;;;;;;16.37;12.97;;;;;;;-3.51;50.23;100570.69;10520115;28;20535;-37
2023/12/03 06:03:38;;;;;;;16.30;11.63;;;;;;;-3.25;50.43;100519.66;10513683;28;20249;-42
2023/12/03 06:08:40;;;;;;;18.33;12.57;;;;;;;-3.30;49.84;100539.97;10511983;28;20778;-39
2023/12/03 06:13:42;;;;;;;19.00;13.20;;;;;;;-2.86;49.60;100469.69;10525455;28;20237;-39
2023/12/03 06:18:43;;;;;;;17.00;12.33;;;;;;;-2.69;49.59;100413.75;10525561;28;20256;-37
2023/12/03 06:23:46;;;;;;;17.80;12.33;;;;;;;-3.48;50.76;100481.56;10519234;28;20729;-39
2023/12/03 06:28:48;;;;;;;15.50;11.80;;;;;;;-3.43;50.36;100537.13;10498969;28;20481;-43
2023/12/03 06:33:50;;;;;;;17.13;12.90;;;;;;;-3.87;50.75;100649.97;10517166;28;20324;-37
2023/12/03 06:38:52;;;;;;;19.67;13.63;;;;;;;-2.94;49.52;100419.47;10506863;28;20260;-39
2023/12/03 06:43:54;;;;;;;18.67;13.80;;;;;;;-4.04;51.87;100588.00;10508163;28;20235;-37
2023/12/03 06:48:56;;;;;;;17.57;13.03;;;;;;;-3.74;51.60;100506.38;10505641;28;20239;-39
2023/12/03 06:53:58;;;;;;;17.00;13.53;;;;;;;-3.38;50.36;100480.19;10511838;28;20232;-36
2023/12/03 06:59:00;;;;;;;20.43;13.70;;;;;;;-4.03;50.08;100729.09;10522470;28;20242;-38
2023/12/03 07:04:02;;;;;;;17.43;13.40;;;;;;;-3.64;50.41;100568.66;10518824;28;20232;-40
2023/12/03 07:09:03;;;;;;;19.60;14.67;;;;;;;-3.45;50.45;100541.59;10513810;28;20316;-38
2023/12/03 07:14:25;;;;;;;21.63;15.67;;;;;;;-3.85;50.37;100669.91;10514711;28;20275;-37
2023/12/03 07:19:27;;;;;;;18.67;13.63;;;;;;;-3.60;50.70;100578.06;10501868;28;20238;-36
2023/12/03 07:24:28;;;;;;;18.47;14.70;;;;;;;-3.54;50.51;100591.75;10520845;28;20231;-40
2023/12/03 07:29:31;;;;;;;18.73;14.23;;;;;;;-2.51;49.29;100416.28;10508451;28;20257;-38
2023/12/03 07:34:33;;;;;;;17.97;13.60;;;;;;;-3.44;49.57;100682.84;10519997;28;20315;-36
2023/12/03 07:39:34;;;;;;;20.00;13.23;;;;;;;-3.74;50.67;100699.94;10524095;28;20272;-37
2023/12/03 07:44:36;;;;;;;20.57;14.23;;;;;;;-2.57;49.50;100445.47;10518778;28;20230;-39
2023/12/03 07:49:38;;;;;;;19.23;13.77;;;;;;;-2.32;49.17;100409.13;10515107;28;20271;-37
2023/12/03 07:54:41;;;;;;;21.50;13.73;;;;;;;-1.89;48.44;100371.72;10513966;28;20232;-38
2023/12/03 07:59:44;;;;;;;24.77;16.20;;;;;;;-2.97;49.71;100602.13;10528139;28;20238;-39
2023/12/03 08:04:45;;;;;;;20.07;14.33;;;;;;;-2.34;49.68;100407.50;10512915;28;20287;-38
2023/12/03 08:09:51;;;;;;;20.53;15.07;;;;;;;-1.52;47.88;100437.81;10516251;28;20707;-40
2023/12/03 08:14:53;;;;;;;23.07;16.20;;;;;;;-1.55;48.40;100420.47;10507650;28;20233;-41
2023/12/03 08:19:55;;;;;;;133.20;77.70;;;;;;;-1.65;48.04;100550.56;10521825;28;20237;-35
2023/12/03 08:24:56;;;;;;;55.53;32.53;;;;;;;-1.18;48.14;100428.81;10525055;28;20257;-39
2023/12/03 08:29:58;;;;;;;47.00;27.50;;;;;;;-0.68;47.37;100412.66;10523933;28;20321;-35
2023/12/03 08:35:00;;;;;;;49.53;28.30;;;;;;;-0.59;47.21;100432.25;10522910;28;20337;-34
2023/12/03 08:40:02;;;;;;;36.10;23.07;;;;;;;-0.81;47.36;100520.31;10525149;28;20242;-39
2023/12/03 08:45:04;;;;;;;27.73;17.83;;;;;;;-1.04;46.74;100716.97;10516026;28;20333;-37
2023/12/03 08:50:06;;;;;;;22.37;16.10;;;;;;;-0.94;47.94;100564.88;10515539;28;20557;-39
2023/12/03 08:55:08;;;;;;;25.63;17.23;;;;;;;0.22;46.15;100448.09;10516850;28;20615;-39
2023/12/03 09:00:12;;;;;;;22.27;16.87;;;;;;;0.50;45.99;100441.03;10517948;28;20235;-42
2023/12/03 09:05:14;;;;;;;32.40;23.93;;;;;;;-0.80;48.08;100543.03;10506797;28;20317;-35
2023/12/03 09:10:16;;;;;;;50.67;28.97;;;;;;;-0.06;47.59;100442.03;10515976;28;20629;-38
2023/12/03 09:15:18;;;;;;;21.63;15.50;;;;;;;-0.29;47.59;100584.69;10528426;28;20227;-38
2023/12/03 09:20:20;;;;;;;19.67;15.30;;;;;;;-0.78;47.25;100698.03;10527892;28;20242;-36
2023/12/03 09:25:21;;;;;;;17.63;14.60;;;;;;;-0.09;47.29;100559.78;10516277;28;20235;-35
2023/12/03 09:30:23;;;;;;;21.30;14.93;;;;;;;-1.07;48.00;100777.56;10518734;28;20273;-38
2023/12/03 09:35:29;;;;;;;20.27;16.53;;;;;;;-0.08;47.04;100651.78;10526319;28;20226;-37
2023/12/03 09:40:31;;;;;;;19.97;15.33;;;;;;;-0.65;49.06;100639.38;10520853;28;20329;-37
2023/12/03 09:45:33;;;;;;;22.33;15.13;;;;;;;-0.61;48.39;100654.03;10517861;28;20259;-38
2023/12/03 09:50:37;;;;;;;16.97;14.57;;;;;;;0.07;48.05;100512.28;10519337;28;20336;-40
2023/12/03 09:55:40;;;;;;;19.53;15.20;;;;;;;0.15;47.73;100581.06;10501513;28;20220;-39
2023/12/03 10:00:42;;;;;;;19.73;15.07;;;;;;;0.36;47.26;100491.13;10512202;28;20227;-40
2023/12/03 10:05:45;;;;;;;19.73;13.93;;;;;;;-0.98;47.73;100828.75;10511128;28;20215;-41
2023/12/03 10:10:54;;;;;;;19.70;13.93;;;;;;;1.03;46.62;100440.94;10493538;28;20227;-41
2023/12/03 10:15:56;;;;;;;19.07;13.17;;;;;;;-0.23;48.21;100594.00;10518484;28;20657;-38
2023/12/03 10:21:06;;;;;;;19.00;13.70;;;;;;;-0.43;48.65;100617.09;10521272;28;20766;-40
2023/12/03 10:26:12;;;;;;;17.87;13.80;;;;;;;0.57;47.18;100471.28;10521745;28;20240;-39
2023/12/03 10:31:15;;;;;;;19.53;14.13;;;;;;;-0.19;48.66;100600.78;10519580;28;20661;-39
2023/12/03 10:36:18;;;;;;;16.77;11.27;;;;;;;-2.13;51.71;100671.19;10524086;28;20230;-37
2023/12/03 10:41:20;;;;;;;14.03;10.90;;;;;;;-1.88;51.50;100666.41;10523345;28;20241;-41
2023/12/03 10:46:21;;;;;;;17.67;12.60;;;;;;;0.47;47.99;100388.56;10515763;28;20243;-36
2023/12/03 10:51:27;;;;;;;16.53;12.30;;;;;;;-0.68;48.45;100651.84;10508266;28;20238;-37
2023/12/03 10:56:28;;;;;;;15.03;10.77;;;;;;;-1.87;51.13;100686.50;10511840;28;20234;-40
2023/12/03 11:06:14;;;;;;;14.43;11.37;;;;;;;-1.52;52.78;100310.97;10548907;27;20324;-69
2023/12/03 11:11:16;;;;;;;13.43;10.97;;;;;;;-0.90;52.16;100300.97;10469726;28;20695;-69
2023/12/03 11:16:19;;;;;;;15.27;11.43;;;;;;;-0.51;50.48;100294.13;10433505;28;20228;-69
2023/12/03 11:21:59;;;;;;;16.57;12.13;;;;;;;-0.78;50.30;100408.91;10429825;28;20725;-69
2023/12/03 11:27:02;;;;;;;14.90;11.50;;;;;;;-1.07;51.11;100388.75;10431061;28;20665;-71
2023/12/03 11:32:04;;;;;;;17.50;13.53;;;;;;;-0.48;50.70;100265.00;10414596;28;20302;-68
2023/12/03 11:37:09;;;;;;;16.60;12.47;;;;;;;-1.22;50.51;100460.59;10457208;28;20222;-70
2023/12/03 11:42:13;;;;;;;15.90;12.27;;;;;;;-1.12;50.57;100389.97;10491964;28;20230;-70
2023/12/03 11:47:15;;;;;;;16.57;11.40;;;;;;;-1.33;50.49;100482.22;10490841;28;20233;-69
2023/12/03 11:52:18;;;;;;;14.37;10.67;;;;;;;-0.45;49.57;100300.81;10483800;28;20250;-70
2023/12/03 11:57:19;;;;;;;15.63;10.73;;;;;;;-0.01;49.02;100257.53;10458919;28;20722;-70
2023/12/03 12:02:21;;;;;;;15.10;11.70;;;;;;;-0.30;49.79;100294.53;10407004;28;20234;-70
2023/12/03 12:07:23;;;;;;;13.90;11.13;;;;;;;-0.21;49.84;100244.88;10431609;28;20235;-70
2023/12/03 12:12:25;;;;;;;14.60;10.57;;;;;;;-0.47;49.45;100347.38;10422620;28;20232;-68
2023/12/03 12:17:27;;;;;;;12.90;10.33;;;;;;;-1.58;51.99;100425.91;10421740;28;20240;-68
2023/12/03 12:22:29;;;;;;;12.43;9.40;;;;;;;-0.21;49.25;100335.16;10421521;28;20260;-68
2023/12/03 12:27:31;;;;;;;14.80;10.73;;;;;;;0.47;48.48;100212.97;10398626;28;20240;-67
2023/12/03 12:32:34;;;;;;;15.33;10.97;;;;;;;0.26;48.69;100309.25;10382744;28;20670;-68
2023/12/03 12:37:37;;;;;;;17.87;12.50;;;;;;;0.16;48.79;100310.81;10396166;28;20260;-68
2023/12/03 12:42:42;;;;;;;16.20;10.97;;;;;;;-0.15;48.30;100323.38;10395084;28;20241;-69
2023/12/03 12:47:44;;;;;;;11.83;9.17;;;;;;;-1.98;50.32;100538.38;10396497;28;20268;-66
2023/12/03 12:52:55;;;;;;;11.43;7.60;;;;;;;-2.22;51.05;100563.31;10392883;28;20229;-68
2023/12/03 12:57:59;;;;;;;12.27;9.00;;;;;;;-0.78;49.11;100345.84;10395268;28;20473;-68
2023/12/03 13:03:01;;;;;;;12.77;9.10;;;;;;;-1.11;49.01;100434.53;10394695;28;20242;-68
2023/12/03 13:08:03;;;;;;;10.47;8.00;;;;;;;-1.09;49.68;100366.13;10394470;28;20234;-67
2023/12/03 13:13:05;;;;;;;11.77;8.67;;;;;;;-0.09;48.08;100251.94;10394610;28;20221;-66
2023/12/03 13:18:07;;;;;;;11.17;8.80;;;;;;;-1.63;49.57;100567.06;10394114;28;20315;-66
2023/12/03 13:23:20;;;;;;;11.93;8.30;;;;;;;-1.25;49.25;100397.72;10393496;28;20231;-66
2023/12/03 13:28:22;;;;;;;9.83;7.37;;;;;;;-1.63;49.93;100455.97;10398612;28;20292;-67
2023/12/03 13:33:24;;;;;;;11.70;7.70;;;;;;;0.75;47.05;100146.91;10396098;28;20555;-66
2023/12/03 13:38:27;;;;;;;13.83;9.67;;;;;;;-0.73;48.52;100376.13;10393152;28;20225;-65
2023/12/03 13:43:28;;;;;;;12.97;9.33;;;;;;;-1.10;49.54;100414.34;10396462;28;20837;-65
2023/12/03 13:48:30;;;;;;;14.80;10.63;;;;;;;0.99;45.78;100269.00;10392445;28;20256;-67
2023/12/03 13:53:32;;;;;;;13.40;9.63;;;;;;;-0.63;48.33;100393.00;10392407;28;20328;-68
2023/12/03 13:58:33;;;;;;;8.90;7.40;;;;;;;-1.08;47.87;100454.50;10389798;28;20678;-68
2023/12/03 14:03:35;;;;;;;9.10;7.67;;;;;;;-1.66;47.76;100517.38;10389582;28;20229;-68
2023/12/03 14:08:40;;;;;;;10.93;8.20;;;;;;;-1.01;48.62;100308.69;10376057;28;20459;-68
2023/12/03 14:13:42;;;;;;;8.57;7.60;;;;;;;-1.21;48.70;100316.03;10394365;28;20239;-66
2023/12/03 14:18:43;;;;;;;11.47;7.27;;;;;;;-0.82;48.39;100238.28;10377544;28;20280;-68
2023/12/03 14:23:45;;;;;;;9.13;7.57;;;;;;;0.53;46.17;100134.47;10414159;28;20239;-71
2023/12/03 14:28:47;;;;;;;7.80;6.83;;;;;;;-1.62;47.71;100560.88;10406338;28;20528;-69
2023/12/03 14:33:48;;;;;;;9.90;7.27;;;;;;;-0.36;46.61;100288.84;10393934;28;20233;-70
2023/12/03 14:38:51;;;;;;;10.13;7.33;;;;;;;-1.18;47.24;100443.69;10385894;28;20229;-72
2023/12/03 14:43:52;;;;;;;9.20;7.50;;;;;;;-0.43;46.76;100244.53;10391278;28;20904;-69
2023/12/03 14:48:54;;;;;;;12.87;7.90;;;;;;;-0.04;46.13;100256.91;10386832;28;20325;-69
2023/12/03 14:53:56;;;;;;;9.47;8.20;;;;;;;-0.98;46.43;100445.97;10390206;28;20225;-69
2023/12/03 14:59:05;;;;;;;9.77;7.67;;;;;;;0.53;44.92;100276.69;10391844;28;20244;-69
2023/12/03 15:04:07;;;;;;;21.30;14.33;;;;;;;0.06;45.69;100363.22;10391176;28;20795;-67
2023/12/03 15:09:09;;;;;;;10.90;9.33;;;;;;;-0.30;46.81;100393.63;10392662;28;20244;-69
2023/12/03 15:14:10;;;;;;;12.80;9.70;;;;;;;0.75;45.17;100294.47;10385427;28;20227;-68
2023/12/03 15:19:12;;;;;;;13.40;10.00;;;;;;;0.53;44.82;100324.94;10392004;28;20233;-70
2023/12/03 15:24:14;;;;;;;11.63;9.33;;;;;;;0.39;44.79;100398.75;10387953;28;20235;-70
2023/12/03 15:29:16;;;;;;;14.93;9.90;;;;;;;-0.32;45.70;100537.53;10392037;28;20432;-69
2023/12/03 15:34:18;;;;;;;9.23;7.53;;;;;;;1.43;44.58;100206.09;10391943;28;20235;-69
2023/12/03 15:39:20;;;;;;;10.13;8.67;;;;;;;1.00;44.19;100377.91;10390399;28;20743;-69
2023/12/03 15:44:22;;;;;;;17.33;13.13;;;;;;;0.10;45.32;100528.72;10394557;28;20257;-69
2023/12/03 15:49:23;;;;;;;16.13;13.33;;;;;;;0.19;45.91;100419.38;10389491;28;20252;-69
2023/12/03 15:54:25;;;;;;;21.13;16.40;;;;;;;-0.68;47.34;100510.75;10394113;28;20307;-69
2023/12/03 15:59:27;;;;;;;15.40;11.00;;;;;;;-0.80;48.33;100451.88;10394008;28;20796;-69
2023/12/03 16:04:29;;;;;;;13.37;10.80;;;;;;;-0.43;46.74;100468.03;10394011;28;20273;-69
2023/12/03 16:09:31;;;;;;;17.33;12.20;;;;;;;0.57;46.41;100221.06;10395867;28;20238;-69
2023/12/03 16:14:32;;;;;;;15.90;10.50;;;;;;;0.72;45.74;100289.44;10393259;28;20233;-69
2023/12/03 16:19:34;;;;;;;14.90;11.70;;;;;;;0.11;46.46;100413.78;10392784;28;20256;-69
2023/12/03 16:24:36;;;;;;;15.97;11.90;;;;;;;0.53;45.94;100353.06;10393832;28;20280;-68
2023/12/03 16:29:38;;;;;;;15.17;11.33;;;;;;;0.17;47.01;100407.25;10396036;28;20316;-69
2023/12/03 16:34:42;;;;;;;20.33;14.90;;;;;;;-0.21;46.94;100432.50;10398171;28;20283;-70
2023/12/03 16:39:44;;;;;;;14.13;11.13;;;;;;;-0.29;47.19;100440.88;10390612;28;20294;-67
2023/12/03 16:44:47;;;;;;;12.53;10.00;;;;;;;-1.30;48.86;100479.41;10398942;28;20724;-68
2023/12/03 16:49:49;;;;;;;10.87;8.87;;;;;;;-0.78;47.64;100377.38;10394258;28;20236;-68
2023/12/03 16:54:51;;;;;;;13.50;10.23;;;;;;;0.19;46.25;100229.88;10396742;28;20259;-68
2023/12/03 16:59:52;;;;;;;13.60;10.77;;;;;;;0.55;45.89;100262.47;10393099;28;20299;-68
2023/12/03 17:04:54;;;;;;;15.10;11.80;;;;;;;0.29;45.49;100323.06;10396863;28;20294;-68
2023/12/03 17:09:56;;;;;;;13.90;10.67;;;;;;;0.53;45.08;100276.69;10393904;28;20319;-68
2023/12/03 17:14:58;;;;;;;15.63;11.23;;;;;;;-0.32;46.67;100437.59;10405302;28;20324;-68
2023/12/03 17:19:59;;;;;;;23.50;15.57;;;;;;;-1.47;48.68;100535.53;10394604;28;20335;-68
2023/12/03 17:25:02;;;;;;;21.80;15.07;;;;;;;-0.76;48.54;100355.28;10390598;28;20320;-69
2023/12/03 17:30:04;;;;;;;84.23;43.50;;;;;;;-0.02;47.01;100252.38;10394165;28;20225;-70
2023/12/03 17:35:06;;;;;;;46.67;30.10;;;;;;;0.13;46.21;100265.31;10396042;28;20229;-70
2023/12/03 17:40:12;;;;;;;33.47;21.57;;;;;;;-0.22;46.46;100374.72;10394194;28;20525;-69
2023/12/03 17:45:14;;;;;;;23.33;14.47;;;;;;;-0.38;47.20;100354.69;10395484;28;20791;-70
2023/12/03 17:50:16;;;;;;;20.80;15.13;;;;;;;0.19;47.06;100213.19;10390978;28;20316;-68
2023/12/03 17:55:19;;;;;;;27.80;17.30;;;;;;;-0.31;47.76;100334.91;10389952;28;20709;-68
2023/12/03 18:00:21;;;;;;;18.13;12.37;;;;;;;0.49;47.09;100228.66;10392104;28;20232;-68
2023/12/03 18:05:22;;;;;;;40.07;19.47;;;;;;;0.00;48.95;100290.78;10390908;28;20236;-67
2023/12/03 18:10:25;;;;;;;28.80;16.50;;;;;;;-0.26;48.70;100385.44;10393053;28;20237;-72
2023/12/03 18:15:28;;;;;;;19.47;13.63;;;;;;;-2.70;52.39;100595.47;10391758;28;20236;-69
2023/12/03 18:20:30;;;;;;;21.37;14.33;;;;;;;-0.75;50.01;100170.38;10390905;28;20691;-73
2023/12/03 18:25:32;;;;;;;16.97;12.60;;;;;;;-0.11;48.88;100204.69;10390792;28;20316;-71
2023/12/03 18:30:33;;;;;;;21.47;16.30;;;;;;;-0.35;49.94;100204.56;10397839;28;20673;-71
2023/12/03 18:35:40;;;;;;;21.73;13.83;;;;;;;-1.31;51.01;100366.56;10391481;28;20320;-71
2023/12/03 18:40:44;;;;;;;24.73;16.63;;;;;;;-0.85;50.95;100225.31;10424884;28;20705;-67
2023/12/03 18:45:46;;;;;;;20.20;14.90;;;;;;;0.07;49.66;100057.00;10390380;28;20226;-70
2023/12/03 18:50:50;;;;;;;29.93;17.87;;;;;;;-0.64;49.41;100317.72;10397178;28;20213;-69
2023/12/03 18:55:52;;;;;;;17.97;13.00;;;;;;;-0.66;51.02;100208.34;10391568;28;20275;-69
2023/12/03 19:00:54;;;;;;;16.33;12.10;;;;;;;0.11;49.18;100114.56;10393283;28;20228;-70
2023/12/03 19:05:55;;;;;;;15.73;11.77;;;;;;;-0.26;49.78;100245.19;10393724;28;20242;-71
2023/12/03 19:10:57;;;;;;;13.70;10.90;;;;;;;-0.09;49.78;100152.81;10392482;28;20266;-71
2023/12/03 19:15:59;;;;;;;16.47;12.53;;;;;;;-1.24;52.06;100307.53;10388693;28;20236;-72
2023/12/03 19:21:01;;;;;;;16.10;11.73;;;;;;;-1.06;51.77;100234.59;10392598;28;20667;-69
2023/12/03 19:26:03;;;;;;;14.80;12.07;;;;;;;-0.56;51.51;100106.94;10387556;28;20782;-71
2023/12/03 19:31:05;;;;;;;15.13;11.60;;;;;;;-0.94;51.11;100241.69;10403264;28;20783;-69
2023/12/03 19:36:07;;;;;;;13.53;11.23;;;;;;;-0.34;51.01;100114.19;10401329;28;20706;-69
2023/12/03 19:41:09;;;;;;;12.77;10.57;;;;;;;0.34;49.70;99971.72;10400071;28;20236;-70
2023/12/03 19:46:11;;;;;;;15.63;11.47;;;;;;;-1.29;52.14;100259.69;10393281;28;20618;-69
2023/12/03 19:51:13;;;;;;;15.03;10.70;;;;;;;0.05;49.89;100038.69;10396942;28;20604;-67
2023/12/03 19:56:15;;;;;;;13.83;11.60;;;;;;;0.03;49.60;100066.91;10395888;28;20232;-69
2023/12/03 20:01:16;;;;;;;14.50;11.20;;;;;;;0.10;49.87;100004.97;10398450;28;20530;-69
2023/12/03 20:06:18;;;;;;;15.67;12.33;;;;;;;-0.73;51.60;100141.38;10402004;28;20479;-69
2023/12/03 20:11:20;;;;;;;15.37;11.43;;;;;;;-0.94;51.70;100201.44;10398897;28;20248;-69
2023/12/03 20:16:22;;;;;;;13.90;10.83;;;;;;;-0.57;50.85;100149.09;10401004;28;20712;-70
2023/12/03 20:21:25;;;;;;;20.00;11.87;;;;;;;-0.98;52.61;100127.22;10398228;28;20234;-70
2023/12/03 20:26:28;;;;;;;15.60;12.03;;;;;;;0.52;49.80;99908.97;10393039;28;20805;-69
2023/12/03 20:31:32;;;;;;;16.83;11.87;;;;;;;-0.30;51.08;100062.22;10395934;28;20249;-69
2023/12/03 20:36:35;;;;;;;15.67;11.50;;;;;;;-0.54;52.05;100099.78;10396368;28;20232;-70
2023/12/03 20:41:38;;;;;;;19.60;13.60;;;;;;;-0.26;50.91;100001.41;10428724;28;20249;-70
2023/12/03 20:46:39;;;;;;;14.57;11.87;;;;;;;-0.25;50.80;100033.81;10400103;28;20241;-70
2023/12/03 20:51:41;;;;;;;16.03;12.47;;;;;;;-1.13;52.27;100183.38;10396591;28;20239;-71
2023/12/03 20:56:44;;;;;;;18.83;14.87;;;;;;;-2.00;53.99;100246.47;10400499;28;20229;-69
2023/12/03 21:01:48;;;;;;;16.50;13.23;;;;;;;-1.66;53.69;100133.38;10394899;28;20325;-68
2023/12/03 21:06:52;;;;;;;20.40;14.30;;;;;;;-1.40;52.72;100085.28;10395737;28;20241;-68
2023/12/03 21:11:54;;;;;;;18.40;13.20;;;;;;;-1.26;53.00;100070.41;10393135;28;20224;-70
2023/12/03 21:16:56;;;;;;;16.60;12.03;;;;;;;-1.58;53.03;100108.31;10398771;28;20302;-69
2023/12/03 21:22:00;;;;;;;15.80;11.80;;;;;;;-0.19;50.40;99901.03;10396926;28;20359;-69
2023/12/03 21:27:02;;;;;;;16.40;11.37;;;;;;;-1.12;52.25;100074.78;10391476;28;20251;-69
2023/12/03 21:32:05;;;;;;;16.73;11.80;;;;;;;-2.06;53.18;100164.69;10397079;28;20224;-69
2023/12/03 21:37:07;;;;;;;18.03;13.70;;;;;;;-2.40;54.52;100170.16;10396395;28;20335;-69
2023/12/03 21:42:09;;;;;;;19.40;11.80;;;;;;;-2.35;54.22;100099.13;10391628;28;20335;-69
2023/12/03 21:47:12;;;;;;;19.60;14.30;;;;;;;-2.27;54.11;100031.34;10394448;28;20228;-69
2023/12/03 21:52:13;;;;;;;19.70;13.47;;;;;;;-3.10;55.01;100199.47;10394269;28;20715;-69
2023/12/03 21:57:15;;;;;;;20.00;14.70;;;;;;;-2.93;54.61;100108.63;10395248;28;20319;-69
2023/12/03 22:02:17;;;;;;;19.37;15.00;;;;;;;-2.33;54.60;99909.31;10395620;28;20542;-69
2023/12/03 22:07:18;;;;;;;21.33;15.47;;;;;;;-1.93;52.43;99912.00;10393167;28;20319;-69
2023/12/03 22:12:20;;;;;;;22.60;17.30;;;;;;;-2.82;54.05;100035.53;10392284;28;20661;-69
2023/12/03 22:17:22;;;;;;;21.50;17.10;;;;;;;-2.55;53.95;99982.38;10392518;28;20327;-69
2023/12/03 22:22:23;;;;;;;23.27;15.93;;;;;;;-2.95;54.96;99988.25;10388627;28;20236;-70
2023/12/03 22:27:25;;;;;;;19.57;15.23;;;;;;;-2.90;54.66;99957.41;10389360;28;20240;-70
2023/12/03 22:32:27;;;;;;;22.10;14.93;;;;;;;-1.50;52.87;99695.72;10390776;28;20263;-70
2023/12/03 22:37:29;;;;;;;18.13;12.90;;;;;;;-2.46;53.71;99936.41;10389341;28;20298;-70
2023/12/03 22:42:31;;;;;;;17.93;13.57;;;;;;;-2.67;53.99;99953.38;10392731;28;20276;-69
2023/12/03 22:47:32;;;;;;;19.73;14.00;;;;;;;-1.22;52.03;99691.13;10394314;28;20367;-70